createdAt,value
2023-08-15T00:01:18.697Z,74.98
2023-08-15T00:03:48.038Z,74.81
2023-08-15T00:06:16.909Z,75.11
2023-08-15T00:08:45.811Z,75.14
2023-08-15T00:11:14.536Z,75.39
2023-08-15T00:13:43.371Z,75.37
2023-08-15T00:16:12.655Z,75.16
2023-08-15T00:18:44.136Z,75.19
2023-08-15T00:21:13.030Z,75.42
2023-08-15T00:23:41.967Z,75.51
2023-08-15T00:26:11.125Z,75.53
2023-08-15T00:28:40.301Z,75.57
2023-08-15T00:31:09.232Z,75.68
2023-08-15T00:33:38.148Z,75.76
2023-08-15T00:36:12.038Z,75.82
2023-08-15T00:38:40.973Z,75.85
2023-08-15T00:41:10.028Z,75.92
2023-08-15T00:43:38.977Z,75.93
2023-08-15T00:46:09.863Z,75.89
2023-08-15T00:48:40.293Z,75.66
2023-08-15T00:51:11.898Z,75.64
2023-08-15T00:53:41.412Z,75.78
2023-08-15T00:56:10.475Z,75.81
2023-08-15T00:58:39.737Z,75.81
2023-08-15T01:01:08.657Z,76.09
2023-08-15T01:03:38.087Z,76.07
2023-08-15T01:06:07.181Z,76.28
2023-08-15T01:08:37.588Z,76.38
2023-08-15T01:11:07.145Z,76.42
2023-08-15T01:13:45.265Z,76.27
2023-08-15T01:16:17.689Z,76.25
2023-08-15T01:18:52.098Z,76.33
2023-08-15T01:21:27.554Z,76.63
2023-08-15T01:23:58.834Z,76.54
2023-08-15T01:26:27.998Z,76.65
2023-08-15T01:28:56.808Z,76.65
2023-08-15T01:31:33.303Z,76.78
2023-08-15T01:34:09.128Z,77.02
2023-08-15T01:36:42.541Z,76.59
2023-08-15T01:39:15.853Z,76.80
2023-08-15T01:41:47.733Z,77.07
2023-08-15T01:44:18.329Z,77.28
2023-08-15T01:46:48.485Z,77.08
2023-08-15T01:49:17.460Z,77.24
2023-08-15T01:51:46.361Z,77.35
2023-08-15T01:54:17.627Z,77.47
2023-08-15T01:56:46.389Z,77.50
2023-08-15T01:59:15.269Z,77.64
2023-08-15T02:01:44.240Z,77.53
2023-08-15T02:04:13.036Z,77.69
2023-08-15T02:06:41.916Z,77.83
2023-08-15T02:09:11.140Z,77.86
2023-08-15T02:11:41.369Z,77.82
2023-08-15T02:14:10.307Z,77.91
2023-08-15T02:16:39.152Z,77.80
2023-08-15T02:19:08.026Z,77.96
2023-08-15T02:21:36.853Z,78.02
2023-08-15T02:24:06.293Z,78.03
2023-08-15T02:26:37.278Z,78.06
2023-08-15T02:29:07.664Z,78.04
2023-08-15T02:31:36.797Z,78.11
2023-08-15T02:34:06.244Z,78.28
2023-08-15T02:36:35.164Z,78.01
2023-08-15T02:39:04.976Z,78.32
2023-08-15T02:41:33.819Z,78.48
2023-08-15T02:44:03.976Z,78.56
2023-08-15T02:46:34.329Z,78.36
2023-08-15T02:49:03.251Z,78.51
2023-08-15T02:51:32.016Z,78.45
2023-08-15T02:54:00.941Z,78.38
2023-08-15T02:56:29.777Z,78.37
2023-08-15T02:58:58.710Z,78.57
2023-08-15T03:01:27.704Z,78.36
2023-08-15T03:03:58.065Z,78.51
2023-08-15T03:06:27.804Z,78.58
2023-08-15T03:08:56.550Z,78.55
2023-08-15T03:11:25.578Z,78.75
2023-08-15T03:13:55.835Z,78.68
2023-08-15T03:16:24.752Z,78.95
2023-08-15T03:18:53.554Z,79.12
2023-08-15T03:21:24.816Z,79.09
2023-08-15T03:23:53.807Z,79.29
2023-08-15T03:26:22.568Z,79.68
2023-08-15T03:28:53.697Z,79.70
2023-08-15T03:31:24.227Z,79.78
2023-08-15T03:33:58.032Z,79.76
2023-08-15T03:36:28.680Z,80.19
2023-08-15T03:38:57.822Z,80.02
2023-08-15T03:41:26.701Z,80.00
2023-08-15T03:43:55.753Z,80.24
2023-08-15T03:46:26.809Z,80.41
2023-08-15T03:48:56.550Z,80.83
2023-08-15T03:51:43.917Z,80.85
2023-08-15T03:54:15.847Z,81.18
2023-08-15T03:56:44.634Z,81.32
2023-08-15T03:59:13.665Z,81.46
2023-08-15T04:01:44.107Z,81.35
2023-08-15T04:04:13.082Z,81.22
2023-08-15T04:06:42.940Z,81.08
2023-08-15T04:09:11.787Z,80.94
2023-08-15T04:11:42.088Z,80.86
2023-08-15T04:14:11.016Z,80.82
2023-08-15T04:16:40.816Z,80.79
2023-08-15T04:19:09.722Z,80.54
2023-08-15T04:21:38.572Z,80.42
2023-08-15T04:24:07.912Z,80.52
2023-08-15T04:26:36.628Z,80.56
2023-08-15T04:29:07.241Z,80.45
2023-08-15T04:31:36.151Z,80.17
2023-08-15T04:34:07.851Z,80.28
2023-08-15T04:36:38.657Z,80.22
2023-08-15T04:39:07.769Z,80.28
2023-08-15T04:41:38.945Z,80.12
2023-08-15T04:44:11.723Z,79.72
2023-08-15T04:46:41.157Z,79.58
2023-08-15T04:49:09.921Z,79.50
2023-08-15T04:51:38.794Z,79.47
2023-08-15T04:54:08.282Z,79.28
2023-08-15T04:56:37.166Z,79.16
2023-08-15T04:59:06.138Z,79.06
2023-08-15T05:01:36.537Z,79.00
2023-08-15T05:04:05.636Z,78.80
2023-08-15T05:06:34.764Z,78.68
2023-08-15T05:09:03.545Z,78.49
2023-08-15T05:11:32.749Z,78.51
2023-08-15T05:14:03.408Z,78.23
2023-08-15T05:16:32.237Z,77.96
2023-08-15T05:19:02.856Z,78.04
2023-08-15T05:21:31.868Z,77.78
2023-08-15T05:24:00.777Z,77.40
2023-08-15T05:26:29.865Z,77.33
2023-08-15T05:28:58.664Z,76.85
2023-08-15T05:31:30.763Z,76.75
2023-08-15T05:33:59.686Z,76.27
2023-08-15T05:36:29.970Z,75.77
2023-08-15T05:38:58.947Z,75.44
2023-08-15T05:41:27.766Z,74.73
2023-08-15T05:43:56.693Z,74.62
2023-08-15T05:46:25.468Z,73.99
2023-08-15T05:48:54.488Z,73.44
2023-08-15T05:51:23.285Z,73.22
2023-08-15T05:53:53.728Z,73.13
2023-08-15T05:56:22.480Z,72.65
2023-08-15T05:58:51.318Z,72.23
2023-08-15T06:01:23.105Z,71.97
2023-08-15T06:03:53.601Z,71.77
2023-08-15T06:06:25.171Z,71.14
2023-08-15T06:08:55.408Z,70.77
2023-08-15T06:11:24.452Z,70.52
2023-08-15T06:13:53.658Z,70.24
2023-08-15T06:16:22.609Z,69.73
2023-08-15T06:18:51.355Z,69.22
2023-08-15T06:21:20.326Z,68.84
2023-08-15T06:23:49.070Z,68.50
2023-08-15T06:26:19.540Z,68.03
2023-08-15T06:28:48.530Z,67.83
2023-08-15T06:31:17.370Z,67.32
2023-08-15T06:33:46.282Z,66.93
2023-08-15T06:36:15.136Z,66.71
2023-08-15T06:38:44.451Z,66.41
2023-08-15T06:41:14.118Z,66.17
2023-08-15T06:43:44.772Z,65.77
2023-08-15T06:46:14.005Z,65.90
2023-08-15T06:48:42.942Z,65.50
2023-08-15T06:51:12.060Z,65.75
2023-08-15T06:53:42.976Z,65.46
2023-08-15T06:56:11.982Z,64.86
2023-08-15T06:58:40.752Z,64.70
2023-08-15T07:01:10.933Z,63.99
2023-08-15T07:03:39.820Z,63.80
2023-08-15T07:06:08.738Z,63.84
2023-08-15T07:08:39.718Z,63.40
2023-08-15T07:11:08.622Z,63.16
2023-08-15T07:13:37.318Z,62.94
2023-08-15T07:16:06.815Z,62.66
2023-08-15T07:18:37.370Z,62.39
2023-08-15T07:21:07.069Z,61.98
2023-08-15T07:23:35.885Z,61.55
2023-08-15T07:26:05.162Z,60.98
2023-08-15T07:28:34.031Z,61.29
2023-08-15T07:31:02.853Z,60.72
2023-08-15T07:33:31.647Z,61.09
2023-08-15T07:36:01.919Z,60.86
2023-08-15T07:38:30.698Z,60.32
2023-08-15T07:40:59.819Z,59.83
2023-08-15T07:43:28.779Z,59.34
2023-08-15T07:45:57.647Z,58.84
2023-08-15T07:48:26.619Z,59.37
2023-08-15T07:50:57.089Z,58.78
2023-08-15T07:53:27.339Z,57.99
2023-08-15T07:55:56.199Z,57.30
2023-08-15T07:58:24.929Z,56.79
2023-08-15T08:00:54.055Z,56.39
2023-08-15T08:03:22.807Z,56.42
2023-08-15T08:05:51.856Z,55.72
2023-08-15T08:08:20.668Z,55.76
2023-08-15T08:10:50.986Z,55.54
2023-08-15T08:13:20.928Z,55.42
2023-08-15T08:15:49.765Z,55.52
2023-08-15T08:18:19.743Z,55.16
2023-08-15T08:20:48.742Z,54.45
2023-08-15T08:23:17.603Z,53.59
2023-08-15T08:25:46.667Z,52.08
2023-08-15T08:28:16.972Z,52.06
2023-08-15T08:30:45.848Z,51.67
2023-08-15T08:33:15.787Z,51.34
2023-08-15T08:35:44.640Z,51.01
2023-08-15T08:38:13.483Z,51.41
2023-08-15T08:40:44.113Z,51.49
2023-08-15T08:43:13.646Z,51.65
2023-08-15T08:45:50.735Z,51.02
2023-08-15T08:48:20.834Z,50.25
2023-08-15T08:50:51.545Z,49.55
2023-08-15T08:53:20.506Z,49.52
2023-08-15T08:55:50.615Z,49.58
2023-08-15T08:58:19.977Z,50.73
2023-08-15T09:00:52.976Z,50.57
2023-08-15T09:03:24.399Z,49.28
2023-08-15T09:05:53.921Z,48.26
2023-08-15T09:08:23.769Z,47.83
2023-08-15T09:10:53.008Z,46.58
2023-08-15T09:13:23.771Z,46.53
2023-08-15T09:15:58.209Z,46.68
2023-08-15T09:18:29.609Z,46.65
2023-08-15T09:20:58.764Z,45.88
2023-08-15T09:23:27.680Z,45.90
2023-08-15T09:25:57.457Z,45.38
2023-08-15T09:28:26.310Z,45.46
2023-08-15T09:31:00.254Z,45.48
2023-08-15T09:33:29.168Z,45.31
2023-08-15T09:35:59.250Z,45.46
2023-08-15T09:38:30.186Z,45.51
2023-08-15T09:40:59.579Z,45.53
2023-08-15T09:43:28.713Z,44.87
2023-08-15T09:46:01.049Z,44.77
2023-08-15T09:48:30.011Z,45.05
2023-08-15T09:51:00.277Z,45.04
2023-08-15T09:53:29.488Z,45.20
2023-08-15T09:55:57.978Z,44.71
2023-08-15T09:58:26.841Z,44.79
2023-08-15T10:00:57.622Z,45.03
2023-08-15T10:03:34.996Z,44.44
2023-08-15T10:06:05.570Z,43.48
2023-08-15T10:08:35.137Z,43.44
2023-08-15T10:11:05.428Z,43.03
2023-08-15T10:13:35.860Z,42.96
2023-08-15T10:16:07.906Z,43.13
2023-08-15T10:18:38.160Z,42.60
2023-08-15T10:21:07.561Z,42.12
2023-08-15T10:23:38.044Z,42.80
2023-08-15T10:26:07.533Z,42.04
2023-08-15T10:28:37.961Z,41.65
2023-08-15T10:31:07.089Z,42.10
2023-08-15T10:33:39.147Z,41.47
2023-08-15T10:36:10.414Z,41.68
2023-08-15T10:38:45.235Z,41.30
2023-08-15T10:41:16.293Z,41.55
2023-08-15T10:43:50.532Z,41.62
2023-08-15T10:46:20.598Z,41.53
2023-08-15T10:51:27.052Z,41.99
2023-08-15T10:53:57.928Z,41.03
2023-08-15T10:56:29.277Z,40.76
2023-08-15T10:58:59.921Z,41.21
2023-08-15T11:01:30.532Z,41.08
2023-08-15T11:04:00.846Z,41.45
2023-08-15T11:06:30.850Z,40.26
2023-08-15T11:09:00.914Z,40.06
2023-08-15T11:11:35.422Z,40.31
2023-08-15T11:14:04.353Z,40.36
2023-08-15T11:16:33.184Z,40.60
2023-08-15T11:19:03.326Z,40.75
2023-08-15T11:21:32.260Z,40.94
2023-08-15T11:24:01.244Z,39.93
2023-08-15T11:26:30.208Z,39.68
2023-08-15T11:28:58.636Z,39.08
2023-08-15T11:31:27.621Z,38.77
2023-08-15T11:33:56.650Z,38.99
2023-08-15T11:36:26.913Z,38.92
2023-08-15T11:38:57.436Z,38.68
2023-08-15T11:41:26.622Z,38.75
2023-08-15T11:43:55.784Z,38.25
2023-08-15T11:46:26.997Z,37.30
2023-08-15T11:48:57.650Z,36.25
2023-08-15T11:51:27.160Z,36.67
2023-08-15T11:53:58.033Z,37.94
2023-08-15T11:56:26.970Z,38.10
2023-08-15T11:58:55.705Z,38.20
2023-08-15T12:01:26.623Z,38.18
2023-08-15T12:03:57.707Z,38.28
2023-08-15T12:06:28.566Z,38.50
2023-08-15T12:08:57.360Z,38.07
2023-08-15T12:11:27.714Z,38.20
2023-08-15T12:13:56.507Z,38.61
2023-08-15T12:16:25.625Z,38.18
2023-08-15T12:18:54.599Z,38.39
2023-08-15T12:21:23.432Z,38.35
2023-08-15T12:23:53.676Z,38.17
2023-08-15T12:26:22.493Z,38.19
2023-08-15T12:28:51.191Z,38.33
2023-08-15T12:31:20.043Z,38.25
2023-08-15T12:33:48.733Z,38.31
2023-08-15T12:36:17.811Z,38.05
2023-08-15T12:38:46.195Z,38.88
2023-08-15T12:41:16.454Z,38.04
2023-08-15T12:43:45.887Z,37.54
2023-08-15T12:46:14.892Z,38.23
2023-08-15T12:48:43.979Z,37.97
2023-08-15T12:51:12.855Z,38.01
2023-08-15T12:53:41.430Z,37.72
2023-08-15T12:56:10.150Z,38.03
2023-08-15T12:58:40.485Z,37.59
2023-08-15T13:01:10.448Z,37.91
2023-08-15T13:03:39.623Z,38.22
2023-08-15T13:06:08.523Z,38.02
2023-08-15T13:08:37.475Z,37.83
2023-08-15T13:11:06.272Z,37.96
2023-08-15T13:13:35.213Z,38.32
2023-08-15T13:16:05.791Z,38.15
2023-08-15T13:18:34.736Z,37.95
2023-08-15T13:21:03.676Z,38.28
2023-08-15T13:23:32.607Z,38.04
2023-08-15T13:26:01.840Z,38.02
2023-08-15T13:28:30.875Z,37.98
2023-08-15T13:30:59.711Z,38.68
2023-08-15T13:33:31.166Z,38.31
2023-08-15T13:36:01.021Z,38.21
2023-08-15T13:38:29.714Z,38.75
2023-08-15T13:40:58.714Z,38.66
2023-08-15T13:43:27.736Z,37.53
2023-08-15T13:45:58.626Z,38.08
2023-08-15T13:48:27.573Z,38.04
2023-08-15T13:50:57.799Z,37.57
2023-08-15T13:53:27.175Z,38.16
2023-08-15T13:55:56.686Z,38.05
2023-08-15T13:58:26.572Z,38.03
2023-08-15T14:00:55.385Z,38.36
2023-08-15T14:03:26.538Z,38.15
2023-08-15T14:05:55.314Z,38.46
2023-08-15T14:08:25.555Z,38.67
2023-08-15T14:10:54.407Z,39.00
2023-08-15T14:13:23.039Z,38.50
2023-08-15T14:15:51.876Z,38.46
2023-08-15T14:18:20.564Z,38.02
2023-08-15T14:20:49.407Z,37.79
2023-08-15T14:23:18.086Z,37.83
2023-08-15T14:25:48.265Z,38.60
2023-08-15T14:28:18.051Z,38.37
2023-08-15T14:30:47.171Z,38.52
2023-08-15T14:33:17.554Z,38.70
2023-08-15T14:35:47.213Z,39.15
2023-08-15T14:38:15.883Z,38.64
2023-08-15T14:40:44.674Z,38.77
2023-08-15T14:43:14.832Z,38.57
2023-08-15T14:45:44.069Z,38.21
2023-08-15T14:48:12.841Z,38.09
2023-08-15T14:50:41.922Z,38.52
2023-08-15T14:53:10.284Z,38.47
2023-08-15T14:55:39.127Z,38.48
2023-08-15T14:58:07.831Z,38.92
2023-08-15T15:00:38.126Z,39.30
2023-08-15T15:03:07.326Z,38.54
2023-08-15T15:05:36.152Z,38.51
2023-08-15T15:08:05.657Z,38.57
2023-08-15T15:10:37.004Z,38.51
2023-08-15T15:13:06.530Z,38.63
2023-08-15T15:15:51.165Z,38.71
2023-08-15T15:18:23.880Z,38.79
2023-08-15T15:20:52.799Z,39.19
2023-08-15T15:23:21.810Z,38.92
2023-08-15T15:25:50.943Z,38.85
2023-08-15T15:28:20.018Z,39.25
2023-08-15T15:30:49.102Z,39.19
2023-08-15T15:33:18.047Z,39.43
2023-08-15T15:35:48.570Z,39.89
2023-08-15T15:38:17.484Z,40.11
2023-08-15T15:40:46.306Z,40.47
2023-08-15T15:43:15.133Z,40.54
2023-08-15T15:45:43.921Z,40.18
2023-08-15T15:48:13.283Z,40.44
2023-08-15T15:50:42.149Z,40.42
2023-08-15T15:53:12.556Z,40.95
2023-08-15T15:55:41.531Z,40.48
2023-08-15T15:58:10.283Z,40.74
2023-08-15T16:00:39.124Z,41.49
2023-08-15T16:03:07.964Z,41.31
2023-08-15T16:05:37.810Z,41.41
2023-08-15T16:08:07.071Z,40.93
2023-08-15T16:10:37.428Z,40.99
2023-08-15T16:13:07.158Z,41.68
2023-08-15T16:15:35.947Z,41.67
2023-08-15T16:18:05.159Z,41.91
2023-08-15T16:20:34.045Z,42.44
2023-08-15T16:23:03.756Z,42.89
2023-08-15T16:25:32.739Z,42.97
2023-08-15T16:28:03.049Z,42.96
2023-08-15T16:30:32.146Z,43.17
2023-08-15T16:33:01.025Z,42.78
2023-08-15T16:35:29.700Z,43.40
2023-08-15T16:37:58.752Z,43.82
2023-08-15T16:40:27.837Z,43.66
2023-08-15T16:43:12.562Z,43.96
2023-08-15T16:45:41.752Z,44.04
2023-08-15T16:48:10.751Z,44.16
2023-08-15T16:50:39.716Z,43.85
2023-08-15T16:53:08.838Z,43.94
2023-08-15T16:55:38.809Z,44.19
2023-08-15T16:58:07.748Z,43.76
2023-08-15T17:00:38.836Z,44.15
2023-08-15T17:03:08.076Z,44.41
2023-08-15T17:05:37.100Z,44.98
2023-08-15T17:08:06.688Z,44.88
2023-08-15T17:10:35.588Z,44.98
2023-08-15T17:13:05.902Z,45.29
2023-08-15T17:15:34.944Z,45.56
2023-08-15T17:18:05.913Z,45.61
2023-08-15T17:20:34.882Z,46.05
2023-08-15T17:23:03.862Z,46.09
2023-08-15T17:25:32.624Z,46.48
2023-08-15T17:28:01.526Z,46.78
2023-08-15T17:30:30.296Z,47.15
2023-08-15T17:32:59.185Z,47.65
2023-08-15T17:35:30.868Z,47.61
2023-08-15T17:38:00.175Z,47.96
2023-08-15T17:40:28.862Z,47.80
2023-08-15T17:42:57.902Z,48.08
2023-08-15T17:45:26.755Z,48.12
2023-08-15T17:47:55.719Z,48.19
2023-08-15T17:50:24.893Z,48.66
2023-08-15T17:52:54.872Z,48.55
2023-08-15T17:55:26.625Z,48.71
2023-08-15T17:57:55.501Z,49.07
2023-08-15T18:00:24.605Z,49.32
2023-08-15T18:02:53.166Z,49.88
2023-08-15T18:05:22.327Z,49.89
2023-08-15T18:07:50.920Z,50.17
2023-08-15T18:10:21.784Z,50.55
2023-08-15T18:12:50.626Z,51.48
2023-08-15T18:15:19.472Z,52.58
2023-08-15T18:17:50.234Z,52.88
2023-08-15T18:20:19.529Z,52.84
2023-08-15T18:22:48.291Z,52.62
2023-08-15T18:25:17.341Z,52.06
2023-08-15T18:27:47.490Z,52.68
2023-08-15T18:30:16.352Z,53.67
2023-08-15T18:32:45.209Z,53.78
2023-08-15T18:35:14.292Z,54.09
2023-08-15T18:37:45.777Z,54.74
2023-08-15T18:40:17.315Z,54.66
2023-08-15T18:42:47.642Z,54.91
2023-08-15T18:45:16.486Z,55.12
2023-08-15T18:47:45.375Z,55.69
2023-08-15T18:50:16.307Z,56.34
2023-08-15T18:52:45.114Z,57.52
2023-08-15T18:55:14.111Z,58.00
2023-08-15T18:57:43.836Z,58.72
2023-08-15T19:00:16.792Z,59.18
2023-08-15T19:02:47.318Z,59.58
2023-08-15T19:05:16.277Z,59.61
2023-08-15T19:07:45.202Z,59.72
2023-08-15T19:10:14.303Z,60.44
2023-08-15T19:12:43.279Z,61.12
2023-08-15T19:15:20.545Z,61.36
2023-08-15T19:17:51.058Z,61.55
2023-08-15T19:20:22.706Z,62.06
2023-08-15T19:22:51.685Z,62.26
2023-08-15T19:25:20.810Z,62.00
2023-08-15T19:27:50.662Z,62.03
2023-08-15T19:30:22.638Z,62.38
2023-08-15T19:32:51.888Z,62.55
2023-08-15T19:35:22.279Z,61.88
2023-08-15T19:37:51.143Z,62.14
2023-08-15T19:40:20.193Z,61.88
2023-08-15T19:42:49.184Z,62.40
2023-08-15T19:45:18.016Z,62.22
2023-08-15T19:47:48.370Z,62.98
2023-08-15T19:50:17.330Z,62.77
2023-08-15T19:52:46.309Z,62.88
2023-08-15T19:55:15.130Z,63.03
2023-08-15T19:57:44.138Z,63.58
2023-08-15T20:00:14.320Z,63.85
2023-08-15T20:02:44.020Z,64.14
2023-08-15T20:05:14.674Z,64.55
2023-08-15T20:07:43.579Z,64.98
2023-08-15T20:10:13.162Z,65.49
2023-08-15T20:12:42.779Z,65.51
2023-08-15T20:15:12.107Z,65.34
2023-08-15T20:17:42.001Z,65.82
2023-08-15T20:20:12.140Z,65.92
2023-08-15T20:22:42.477Z,66.23
2023-08-15T20:25:12.113Z,66.23
2023-08-15T20:27:41.075Z,66.40
2023-08-15T20:30:11.113Z,66.34
2023-08-15T20:32:40.290Z,66.03
2023-08-15T20:35:11.333Z,65.68
2023-08-15T20:37:41.738Z,65.76
2023-08-15T20:40:11.994Z,65.82
2023-08-15T20:42:40.850Z,66.00
2023-08-15T20:45:11.799Z,65.97
2023-08-15T20:47:41.292Z,66.37
2023-08-15T20:50:09.787Z,65.88
2023-08-15T20:52:38.966Z,65.94
2023-08-15T20:55:12.738Z,66.35
2023-08-15T20:57:41.583Z,66.45
2023-08-15T21:00:12.060Z,66.47
2023-08-15T21:02:41.035Z,66.54
2023-08-15T21:05:13.874Z,66.51
2023-08-15T21:07:43.226Z,66.85
2023-08-15T21:10:13.492Z,67.50
2023-08-15T21:12:42.305Z,67.96
2023-08-15T21:15:11.805Z,68.36
2023-08-15T21:17:40.701Z,68.67
2023-08-15T21:20:11.102Z,68.85
2023-08-15T21:22:44.981Z,68.89
2023-08-15T21:25:15.709Z,69.59
2023-08-15T21:27:44.466Z,69.69
2023-08-15T21:30:13.735Z,69.84
2023-08-15T21:32:42.812Z,70.01
2023-08-15T21:35:11.634Z,70.12
2023-08-15T21:37:40.525Z,69.87
2023-08-15T21:40:10.489Z,69.75
2023-08-15T21:42:41.289Z,69.34
2023-08-15T21:45:11.226Z,69.13
2023-08-15T21:47:40.357Z,68.70
2023-08-15T21:50:10.592Z,68.52
2023-08-15T21:52:39.515Z,68.52
2023-08-15T21:55:08.579Z,68.42
2023-08-15T21:57:37.564Z,68.32
2023-08-15T22:00:09.414Z,68.41
2023-08-15T22:02:41.313Z,68.79
2023-08-15T22:05:10.828Z,69.44
2023-08-15T22:07:39.410Z,70.11
2023-08-15T22:10:09.568Z,70.36
2023-08-15T22:12:38.469Z,70.53
2023-08-15T22:15:10.166Z,70.29
2023-08-15T22:17:46.087Z,70.41
2023-08-15T22:20:17.046Z,70.64
2023-08-15T22:22:45.808Z,70.49
2023-08-15T22:25:17.560Z,70.38
2023-08-15T22:27:46.911Z,70.27
2023-08-15T22:30:17.626Z,70.14
2023-08-15T22:32:46.618Z,70.11
2023-08-15T22:35:15.440Z,70.05
2023-08-15T22:37:46.057Z,70.30
2023-08-15T22:40:15.576Z,70.14
2023-08-15T22:42:44.029Z,70.21
2023-08-15T22:45:12.913Z,70.38
2023-08-15T22:47:43.154Z,70.66
2023-08-15T22:50:12.189Z,70.45
2023-08-15T22:52:41.007Z,70.40
2023-08-15T22:55:10.305Z,70.58
2023-08-15T22:57:39.107Z,70.71
2023-08-15T23:00:11.229Z,70.46
2023-08-15T23:02:40.286Z,70.60
2023-08-15T23:05:11.728Z,70.36
2023-08-15T23:07:40.804Z,70.46
2023-08-15T23:10:10.529Z,70.46
2023-08-15T23:12:39.439Z,70.96
2023-08-15T23:15:09.723Z,71.20
2023-08-15T23:17:38.569Z,71.45
2023-08-15T23:20:10.403Z,71.74
2023-08-15T23:22:39.319Z,72.22
2023-08-15T23:25:10.020Z,72.37
2023-08-15T23:27:39.167Z,72.17
2023-08-15T23:30:09.458Z,72.31
2023-08-15T23:32:38.303Z,72.39
2023-08-15T23:35:08.356Z,72.93
2023-08-15T23:37:39.020Z,72.95
2023-08-15T23:40:09.490Z,72.84
2023-08-15T23:42:39.419Z,73.09
2023-08-15T23:45:12.203Z,73.21
2023-08-15T23:47:41.483Z,73.41
2023-08-15T23:50:13.237Z,73.62
2023-08-15T23:52:43.605Z,73.47
2023-08-15T23:55:12.780Z,73.40
2023-08-15T23:57:41.539Z,72.99
